Time;durP1;ratioP1;P1;durP2;ratioP2;P2;SDS_P1;SDS_P2;PMS_P1;PMS_P2;Temp;Humidity;BMP_temperature;BMP_pressure;BME280_temperature;BME280_humidity;BME280_pressure;Samples;Min_cycle;Max_cycle;Signal;HPM_P1;HPM_P2
2023/05/09 00:02:15;;;;;;;22.08;15.90;;;;;;;;;;5001711;28;20062;-78
2023/05/09 00:04:42;;;;;;;19.30;16.25;;;;;;;;;;5003255;28;20049;-77
2023/05/09 00:07:09;;;;;;;17.98;14.40;;;;;;;;;;5020844;28;20111;-77
2023/05/09 00:09:36;;;;;;;18.38;16.08;;;;;;;;;;4989877;28;20079;-77
2023/05/09 00:12:03;;;;;;;17.10;14.75;;;;;;;;;;5001897;28;20054;-78
2023/05/09 00:14:32;;;;;;;17.95;15.43;;;;;;;;;;4989108;28;20048;-77
2023/05/09 00:16:59;;;;;;;20.35;16.00;;;;;;;;;;5003918;28;20145;-78
2023/05/09 00:19:26;;;;;;;17.38;15.02;;;;;;;;;;5003622;28;20089;-79
2023/05/09 00:21:53;;;;;;;16.95;15.15;;;;;;;;;;5004601;28;20136;-80
2023/05/09 00:24:19;;;;;;;19.63;15.95;;;;;;;;;;5000519;28;20057;-79
2023/05/09 00:26:46;;;;;;;18.13;14.82;;;;;;;;;;5008783;28;20128;-80
2023/05/09 00:29:13;;;;;;;19.20;16.02;;;;;;;;;;4997219;28;20060;-79
2023/05/09 00:31:40;;;;;;;19.20;16.55;;;;;;;;;;4993583;28;20046;-79
2023/05/09 00:34:06;;;;;;;23.70;16.65;;;;;;;;;;5009288;28;20053;-80
2023/05/09 00:36:33;;;;;;;18.55;15.20;;;;;;;;;;5016908;28;20052;-80
2023/05/09 00:39:00;;;;;;;17.63;15.75;;;;;;;;;;5014689;28;20057;-79
2023/05/09 00:41:27;;;;;;;20.60;16.55;;;;;;;;;;4991785;28;20076;-80
2023/05/09 00:43:53;;;;;;;17.08;14.98;;;;;;;;;;5006830;28;20474;-82
2023/05/09 00:46:20;;;;;;;20.40;15.80;;;;;;;;;;4993464;28;20052;-80
2023/05/09 00:48:47;;;;;;;18.75;15.05;;;;;;;;;;5009276;28;20136;-80
2023/05/09 00:51:14;;;;;;;18.50;15.98;;;;;;;;;;5008792;28;20141;-80
2023/05/09 00:53:41;;;;;;;19.75;16.33;;;;;;;;;;4991266;28;20061;-80
2023/05/09 00:56:08;;;;;;;16.75;15.02;;;;;;;;;;5023398;28;20109;-79
2023/05/09 00:58:35;;;;;;;18.85;16.15;;;;;;;;;;4994238;28;20573;-80
2023/05/09 01:01:02;;;;;;;21.80;17.48;;;;;;;;;;5000477;28;20060;-78
2023/05/09 01:03:30;;;;;;;18.38;16.20;;;;;;;;;;5007695;28;20084;-78
2023/05/09 01:06:03;;;;;;;23.48;16.58;;;;;;;;;;5006592;28;20057;-78
2023/05/09 01:08:55;;;;;;;19.75;16.20;;;;;;;;;;5007169;28;20053;-77
2023/05/09 01:11:32;;;;;;;23.08;18.13;;;;;;;;;;5004579;28;20053;-77
2023/05/09 01:14:05;;;;;;;20.02;16.38;;;;;;;;;;4986619;28;20053;-77
2023/05/09 01:16:39;;;;;;;19.70;16.17;;;;;;;;;;5022255;28;20437;-77
2023/05/09 01:19:26;;;;;;;21.20;17.33;;;;;;;;;;5001147;28;20053;-78
2023/05/09 01:21:53;;;;;;;20.10;17.05;;;;;;;;;;5020417;28;20049;-77
2023/05/09 01:24:32;;;;;;;21.00;18.25;;;;;;;;;;5000229;28;20713;-77
2023/05/09 01:27:15;;;;;;;24.08;18.15;;;;;;;;;;5005782;28;20049;-78
2023/05/09 01:29:43;;;;;;;24.95;18.25;;;;;;;;;;4986948;28;20045;-78
2023/05/09 01:32:18;;;;;;;21.20;17.10;;;;;;;;;;4983838;28;20058;-78
2023/05/09 01:34:45;;;;;;;25.33;19.35;;;;;;;;;;5003413;28;20092;-77
2023/05/09 01:37:14;;;;;;;21.92;18.08;;;;;;;;;;4970043;28;20053;-77
2023/05/09 01:39:43;;;;;;;21.52;17.92;;;;;;;;;;4988784;28;20057;-79
2023/05/09 01:42:10;;;;;;;20.48;17.67;;;;;;;;;;5002082;28;20517;-77
2023/05/09 01:44:38;;;;;;;23.25;17.40;;;;;;;;;;4986472;28;20065;-77
2023/05/09 01:47:06;;;;;;;23.90;18.95;;;;;;;;;;4988075;28;20053;-77
2023/05/09 01:49:35;;;;;;;22.05;18.75;;;;;;;;;;4999746;28;20049;-77
2023/05/09 01:52:04;;;;;;;26.35;20.95;;;;;;;;;;5003641;28;20065;-75
2023/05/09 01:54:31;;;;;;;23.52;19.65;;;;;;;;;;5000963;28;20062;-76
2023/05/09 01:56:58;;;;;;;25.08;19.27;;;;;;;;;;5018892;28;20107;-76
2023/05/09 01:59:26;;;;;;;26.15;18.98;;;;;;;;;;5017303;28;20128;-76
2023/05/09 02:01:54;;;;;;;24.13;18.13;;;;;;;;;;5001113;28;20138;-76
2023/05/09 02:04:20;;;;;;;22.63;19.15;;;;;;;;;;4971178;28;20065;-77
2023/05/09 02:06:50;;;;;;;21.45;18.45;;;;;;;;;;4969875;28;20049;-77
2023/05/09 02:09:17;;;;;;;23.27;18.08;;;;;;;;;;5000927;28;20496;-76
2023/05/09 02:11:45;;;;;;;23.20;18.63;;;;;;;;;;4999155;28;20141;-77
2023/05/09 02:14:12;;;;;;;25.60;19.02;;;;;;;;;;5003647;28;20065;-77
2023/05/09 02:16:39;;;;;;;22.52;18.65;;;;;;;;;;5001645;28;20417;-77
2023/05/09 02:19:06;;;;;;;22.40;18.10;;;;;;;;;;5018543;28;20054;-77
2023/05/09 02:21:33;;;;;;;24.42;19.33;;;;;;;;;;5000132;28;20053;-79
2023/05/09 02:24:00;;;;;;;23.02;18.13;;;;;;;;;;5018603;28;20519;-78
2023/05/09 02:26:26;;;;;;;22.73;18.02;;;;;;;;;;4979968;28;20046;-79
2023/05/09 02:28:54;;;;;;;25.40;18.33;;;;;;;;;;5001937;28;20076;-78
2023/05/09 02:31:22;;;;;;;23.17;18.13;;;;;;;;;;4973242;28;20144;-78
2023/05/09 02:33:50;;;;;;;23.67;17.52;;;;;;;;;;5012602;28;20040;-78
2023/05/09 02:36:17;;;;;;;23.27;17.08;;;;;;;;;;4993911;28;21571;-78
2023/05/09 02:38:43;;;;;;;21.10;17.02;;;;;;;;;;4986713;28;20069;-77
2023/05/09 02:41:14;;;;;;;20.60;16.67;;;;;;;;;;4988387;28;20080;-78
2023/05/09 02:43:40;;;;;;;20.02;16.58;;;;;;;;;;4994772;28;20137;-77
2023/05/09 02:46:08;;;;;;;20.33;16.40;;;;;;;;;;5002346;28;20046;-77
2023/05/09 02:48:35;;;;;;;21.67;16.83;;;;;;;;;;4985409;28;20046;-77
2023/05/09 02:51:03;;;;;;;19.77;16.17;;;;;;;;;;4984662;28;20413;-76
2023/05/09 02:53:30;;;;;;;25.70;17.52;;;;;;;;;;5001497;28;20050;-76
2023/05/09 02:55:57;;;;;;;21.08;15.60;;;;;;;;;;5004528;28;20133;-77
2023/05/09 02:58:24;;;;;;;23.05;17.33;;;;;;;;;;5005294;28;20524;-76
2023/05/09 03:00:50;;;;;;;22.10;17.20;;;;;;;;;;4983984;28;20060;-77
2023/05/09 03:03:17;;;;;;;22.17;17.33;;;;;;;;;;4985928;28;20061;-76
2023/05/09 03:05:45;;;;;;;22.63;17.17;;;;;;;;;;5000597;28;20203;-76
2023/05/09 03:08:11;;;;;;;20.85;16.55;;;;;;;;;;5001465;28;20068;-77
2023/05/09 03:10:38;;;;;;;19.73;16.67;;;;;;;;;;4996458;28;20525;-79
2023/05/09 03:13:05;;;;;;;21.70;16.90;;;;;;;;;;4989461;28;20060;-78
2023/05/09 03:15:32;;;;;;;24.35;18.42;;;;;;;;;;5028020;28;20054;-79
2023/05/09 03:17:58;;;;;;;24.17;18.83;;;;;;;;;;5003662;28;20141;-77
2023/05/09 03:20:26;;;;;;;24.85;19.27;;;;;;;;;;4996100;28;20144;-77
2023/05/09 03:22:53;;;;;;;23.95;18.88;;;;;;;;;;4985257;28;20089;-77
2023/05/09 03:25:20;;;;;;;28.65;19.30;;;;;;;;;;5000798;28;20694;-77
2023/05/09 03:27:46;;;;;;;24.42;17.73;;;;;;;;;;4987954;28;20124;-78
2023/05/09 03:30:13;;;;;;;24.00;17.42;;;;;;;;;;5003013;28;20085;-78
2023/05/09 03:32:40;;;;;;;21.60;17.67;;;;;;;;;;5001711;28;20133;-78
2023/05/09 03:35:07;;;;;;;23.92;18.90;;;;;;;;;;4998958;28;20069;-78
2023/05/09 03:37:34;;;;;;;24.13;19.42;;;;;;;;;;5000033;28;20566;-78
2023/05/09 03:40:01;;;;;;;24.67;19.70;;;;;;;;;;5000618;28;20064;-79
2023/05/09 03:42:27;;;;;;;30.15;19.35;;;;;;;;;;5001747;28;20148;-77
2023/05/09 03:44:54;;;;;;;25.05;19.50;;;;;;;;;;5004054;28;20053;-80
2023/05/09 03:47:21;;;;;;;25.52;20.38;;;;;;;;;;4988671;28;20140;-79
2023/05/09 03:49:48;;;;;;;23.85;19.73;;;;;;;;;;5006540;28;20079;-79
2023/05/09 03:52:14;;;;;;;27.65;21.02;;;;;;;;;;5005884;28;20041;-79
2023/05/09 03:54:41;;;;;;;31.83;21.83;;;;;;;;;;5025326;28;20510;-79
2023/05/09 03:57:08;;;;;;;28.08;20.92;;;;;;;;;;5027129;28;20041;-78
2023/05/09 03:59:34;;;;;;;26.50;19.70;;;;;;;;;;5007428;28;20053;-79
2023/05/09 04:02:01;;;;;;;28.70;21.77;;;;;;;;;;5000196;28;20071;-78
2023/05/09 04:04:28;;;;;;;28.10;20.27;;;;;;;;;;5004879;28;20129;-78
2023/05/09 04:06:55;;;;;;;22.90;18.63;;;;;;;;;;4985634;28;20052;-78
2023/05/09 04:09:22;;;;;;;24.75;19.85;;;;;;;;;;4996698;28;20046;-78
2023/05/09 04:11:49;;;;;;;23.15;18.65;;;;;;;;;;4995994;28;20141;-77
2023/05/09 04:14:15;;;;;;;26.95;19.90;;;;;;;;;;5020777;28;20145;-79
2023/05/09 04:16:42;;;;;;;25.60;18.98;;;;;;;;;;5007531;28;20045;-77
2023/05/09 04:19:09;;;;;;;23.35;18.75;;;;;;;;;;4992769;28;20168;-79
2023/05/09 04:21:36;;;;;;;23.42;19.02;;;;;;;;;;5014933;28;20059;-78
2023/05/09 04:24:03;;;;;;;23.38;19.15;;;;;;;;;;5001293;28;20058;-77
2023/05/09 04:26:30;;;;;;;21.58;17.02;;;;;;;;;;4999424;28;20059;-78
2023/05/09 04:29:00;;;;;;;22.17;16.95;;;;;;;;;;5005718;28;20081;-79
2023/05/09 04:31:30;;;;;;;24.08;17.80;;;;;;;;;;5009579;28;20045;-77
2023/05/09 04:33:57;;;;;;;26.85;18.33;;;;;;;;;;5003175;28;20077;-79
2023/05/09 04:36:26;;;;;;;20.90;17.38;;;;;;;;;;5005360;28;20076;-79
2023/05/09 04:38:53;;;;;;;21.15;18.00;;;;;;;;;;5024603;28;20052;-77
2023/05/09 04:41:23;;;;;;;23.73;18.10;;;;;;;;;;5005954;28;20045;-76
2023/05/09 04:43:51;;;;;;;22.38;16.42;;;;;;;;;;5021385;28;20128;-79
2023/05/09 04:46:27;;;;;;;21.75;17.08;;;;;;;;;;5007708;28;20122;-80
2023/05/09 04:48:55;;;;;;;21.67;18.38;;;;;;;;;;5025978;28;20074;-80
2023/05/09 04:51:22;;;;;;;21.30;18.23;;;;;;;;;;5022534;28;20497;-79
2023/05/09 04:53:48;;;;;;;22.27;17.70;;;;;;;;;;5005670;28;20054;-80
2023/05/09 04:56:15;;;;;;;22.67;18.55;;;;;;;;;;5005244;28;20490;-80
2023/05/09 04:58:42;;;;;;;23.52;18.85;;;;;;;;;;4997372;28;20049;-79
2023/05/09 05:01:09;;;;;;;22.27;18.13;;;;;;;;;;5014254;28;20115;-77
2023/05/09 05:03:36;;;;;;;24.45;18.48;;;;;;;;;;5023992;28;20149;-80
2023/05/09 05:06:03;;;;;;;24.25;18.27;;;;;;;;;;5000372;28;20121;-81
2023/05/09 05:08:29;;;;;;;23.65;17.42;;;;;;;;;;5005772;28;20132;-80
2023/05/09 05:10:56;;;;;;;24.60;19.23;;;;;;;;;;5008576;28;20501;-80
2023/05/09 05:13:23;;;;;;;24.67;19.75;;;;;;;;;;5025686;28;20052;-80
2023/05/09 05:15:50;;;;;;;22.33;18.55;;;;;;;;;;4996354;28;20052;-80
2023/05/09 05:18:17;;;;;;;24.33;17.88;;;;;;;;;;4987327;28;20053;-77
2023/05/09 05:20:44;;;;;;;22.55;18.30;;;;;;;;;;5006738;28;20132;-77
2023/05/09 05:23:11;;;;;;;21.40;17.83;;;;;;;;;;5005620;28;20049;-78
2023/05/09 05:25:37;;;;;;;22.02;18.27;;;;;;;;;;5003174;28;20525;-77
2023/05/09 05:28:04;;;;;;;21.60;17.42;;;;;;;;;;5007014;28;20068;-83
2023/05/09 05:30:31;;;;;;;21.05;18.73;;;;;;;;;;5005117;28;20104;-80
2023/05/09 05:33:00;;;;;;;23.20;18.35;;;;;;;;;;5003185;28;20509;-79
2023/05/09 05:35:28;;;;;;;22.05;18.00;;;;;;;;;;5002653;28;20050;-78
2023/05/09 05:37:54;;;;;;;19.38;17.30;;;;;;;;;;5001491;28;20060;-77
2023/05/09 05:40:21;;;;;;;21.40;18.20;;;;;;;;;;5004350;28;20081;-79
2023/05/09 05:42:48;;;;;;;19.92;17.05;;;;;;;;;;4999149;28;20061;-81
2023/05/09 05:45:15;;;;;;;22.08;17.40;;;;;;;;;;4987180;28;20072;-76
2023/05/09 05:47:42;;;;;;;21.40;17.88;;;;;;;;;;4993612;28;20057;-76
2023/05/09 05:50:10;;;;;;;21.13;17.25;;;;;;;;;;5000279;28;20651;-76
2023/05/09 05:52:38;;;;;;;20.30;16.83;;;;;;;;;;5016833;28;20525;-76
2023/05/09 05:55:05;;;;;;;20.92;18.58;;;;;;;;;;4999340;28;20064;-76
2023/05/09 05:57:34;;;;;;;22.02;17.60;;;;;;;;;;5001822;28;20517;-76
2023/05/09 06:00:01;;;;;;;22.52;18.05;;;;;;;;;;5007900;28;20057;-76
2023/05/09 06:02:28;;;;;;;20.02;17.55;;;;;;;;;;5012542;28;20056;-76
2023/05/09 06:04:55;;;;;;;24.48;18.58;;;;;;;;;;5000450;28;20144;-77
2023/05/09 06:07:21;;;;;;;21.88;17.50;;;;;;;;;;5001373;28;20060;-76
2023/05/09 06:09:48;;;;;;;22.73;17.77;;;;;;;;;;4989354;28;20045;-77
2023/05/09 06:12:16;;;;;;;21.13;17.42;;;;;;;;;;4987311;28;20075;-77
2023/05/09 06:14:42;;;;;;;22.00;18.15;;;;;;;;;;4998214;28;20525;-77
2023/05/09 06:17:09;;;;;;;27.15;19.10;;;;;;;;;;5006181;28;20132;-76
2023/05/09 06:19:36;;;;;;;20.05;16.67;;;;;;;;;;4993850;28;20145;-76
2023/05/09 06:22:03;;;;;;;24.75;17.48;;;;;;;;;;5001247;28;20172;-76
2023/05/09 06:24:29;;;;;;;20.20;16.52;;;;;;;;;;5002003;28;20060;-75
2023/05/09 06:27:04;;;;;;;20.45;17.38;;;;;;;;;;4998861;28;20081;-74
2023/05/09 06:29:30;;;;;;;24.58;18.30;;;;;;;;;;5005494;28;20868;-73
2023/05/09 06:31:57;;;;;;;18.95;16.35;;;;;;;;;;5004732;28;20053;-74
2023/05/09 06:34:24;;;;;;;20.67;16.42;;;;;;;;;;4996347;28;20076;-73
2023/05/09 06:36:51;;;;;;;21.33;17.02;;;;;;;;;;5005268;28;20113;-73
2023/05/09 06:39:18;;;;;;;23.40;16.92;;;;;;;;;;4988023;28;20144;-75
2023/05/09 06:41:45;;;;;;;18.48;15.27;;;;;;;;;;5003698;28;20077;-74
2023/05/09 06:44:13;;;;;;;18.67;15.85;;;;;;;;;;5018043;28;20050;-76
2023/05/09 06:46:40;;;;;;;18.65;16.30;;;;;;;;;;4994140;28;20049;-74
2023/05/09 06:49:07;;;;;;;19.58;16.05;;;;;;;;;;5000865;28;20078;-75
2023/05/09 06:51:35;;;;;;;19.70;16.60;;;;;;;;;;4985230;28;20054;-78
2023/05/09 06:54:02;;;;;;;19.98;16.00;;;;;;;;;;5000194;28;20532;-76
2023/05/09 06:56:30;;;;;;;17.83;15.40;;;;;;;;;;5000099;28;20057;-77
2023/05/09 06:58:57;;;;;;;19.23;16.63;;;;;;;;;;5002847;28;20092;-77
2023/05/09 07:01:24;;;;;;;16.88;15.10;;;;;;;;;;5002260;28;20573;-77
2023/05/09 07:03:51;;;;;;;18.98;15.82;;;;;;;;;;4984368;28;20562;-78
2023/05/09 07:06:18;;;;;;;19.33;15.23;;;;;;;;;;5008275;28;20116;-79
2023/05/09 07:08:45;;;;;;;20.50;16.65;;;;;;;;;;5019998;28;20053;-76
2023/05/09 07:11:12;;;;;;;21.33;17.13;;;;;;;;;;4990859;28;20067;-77
2023/05/09 07:13:39;;;;;;;20.85;16.35;;;;;;;;;;4982870;28;20042;-78
2023/05/09 07:16:05;;;;;;;19.95;16.20;;;;;;;;;;5000688;28;20689;-77
2023/05/09 07:18:32;;;;;;;20.67;17.20;;;;;;;;;;5008221;28;20057;-77
2023/05/09 07:20:59;;;;;;;21.88;16.92;;;;;;;;;;4991615;28;20128;-77
2023/05/09 07:23:26;;;;;;;18.00;15.75;;;;;;;;;;5004813;28;20222;-77
2023/05/09 07:25:57;;;;;;;18.73;16.08;;;;;;;;;;5008012;28;20058;-77
2023/05/09 07:28:24;;;;;;;19.88;15.35;;;;;;;;;;5013886;28;20058;-77
2023/05/09 07:30:53;;;;;;;18.15;15.02;;;;;;;;;;5002679;28;20050;-77
2023/05/09 07:33:20;;;;;;;18.90;15.05;;;;;;;;;;5019473;28;20136;-76
2023/05/09 07:35:47;;;;;;;21.67;16.83;;;;;;;;;;5018893;28;20133;-77
2023/05/09 07:38:14;;;;;;;19.15;15.73;;;;;;;;;;5006905;28;20049;-77
2023/05/09 07:40:40;;;;;;;17.23;15.20;;;;;;;;;;5002020;28;20449;-77
2023/05/09 07:43:07;;;;;;;18.38;14.13;;;;;;;;;;5003864;28;20056;-78
2023/05/09 07:45:35;;;;;;;19.23;15.35;;;;;;;;;;4986388;28;20108;-77
2023/05/09 07:48:02;;;;;;;16.48;14.70;;;;;;;;;;5003560;28;20049;-77
2023/05/09 07:50:29;;;;;;;15.25;13.55;;;;;;;;;;5017813;28;20088;-77
2023/05/09 07:52:56;;;;;;;17.33;15.45;;;;;;;;;;5004630;28;20581;-77
2023/05/09 07:55:22;;;;;;;15.80;13.90;;;;;;;;;;5003777;28;20064;-77
2023/05/09 07:57:49;;;;;;;14.35;12.63;;;;;;;;;;4989968;28;20404;-77
2023/05/09 08:00:17;;;;;;;16.15;14.45;;;;;;;;;;5003725;28;20048;-77
2023/05/09 08:02:43;;;;;;;16.90;13.50;;;;;;;;;;5002807;28;20129;-77
2023/05/09 08:05:12;;;;;;;18.15;14.85;;;;;;;;;;4987957;28;20049;-77
2023/05/09 08:07:39;;;;;;;17.73;15.50;;;;;;;;;;4988274;28;20042;-77
2023/05/09 08:10:07;;;;;;;17.38;14.63;;;;;;;;;;5005926;28;20056;-77
2023/05/09 08:12:34;;;;;;;18.45;14.10;;;;;;;;;;5001912;28;20057;-77
2023/05/09 08:15:01;;;;;;;16.20;14.43;;;;;;;;;;5003347;28;20082;-77
2023/05/09 08:17:28;;;;;;;16.48;14.50;;;;;;;;;;5001885;28;20525;-75
2023/05/09 08:19:55;;;;;;;18.15;14.65;;;;;;;;;;5021046;28;20057;-77
2023/05/09 08:22:21;;;;;;;14.15;12.52;;;;;;;;;;5003822;28;20068;-78
2023/05/09 08:24:48;;;;;;;17.00;13.60;;;;;;;;;;5002679;28;20124;-77
2023/05/09 08:27:15;;;;;;;14.38;12.48;;;;;;;;;;4988943;28;20077;-77
2023/05/09 08:29:42;;;;;;;13.82;12.45;;;;;;;;;;5002722;28;20049;-77
2023/05/09 08:32:09;;;;;;;12.77;11.38;;;;;;;;;;5003017;28;20506;-77
2023/05/09 08:34:35;;;;;;;14.02;12.32;;;;;;;;;;5002492;28;20053;-77
2023/05/09 08:37:03;;;;;;;15.80;12.95;;;;;;;;;;5000663;28;20046;-77
2023/05/09 08:39:30;;;;;;;14.65;13.07;;;;;;;;;;4989841;28;20050;-77
2023/05/09 08:41:58;;;;;;;13.80;12.32;;;;;;;;;;5015359;28;20144;-77
2023/05/09 08:44:25;;;;;;;14.82;13.20;;;;;;;;;;5000277;28;20053;-77
2023/05/09 08:46:55;;;;;;;13.70;12.30;;;;;;;;;;4996323;28;20058;-77
2023/05/09 08:49:22;;;;;;;15.98;13.23;;;;;;;;;;4995539;28;20506;-76
2023/05/09 08:51:49;;;;;;;15.57;12.77;;;;;;;;;;4995411;28;20068;-77
2023/05/09 08:54:16;;;;;;;18.25;14.93;;;;;;;;;;4995666;28;20061;-77
2023/05/09 08:56:42;;;;;;;12.43;11.13;;;;;;;;;;5001914;28;20045;-77
2023/05/09 08:59:09;;;;;;;15.05;11.75;;;;;;;;;;4999004;28;20136;-77
2023/05/09 09:01:36;;;;;;;14.63;13.18;;;;;;;;;;5004859;28;20068;-75
2023/05/09 09:04:07;;;;;;;15.32;12.15;;;;;;;;;;5019900;28;20132;-77
2023/05/09 09:06:34;;;;;;;13.68;12.20;;;;;;;;;;4998674;28;20498;-77
2023/05/09 09:09:04;;;;;;;13.55;10.77;;;;;;;;;;4998942;28;20068;-77
2023/05/09 09:11:32;;;;;;;12.25;10.52;;;;;;;;;;5001137;28;20057;-78
2023/05/09 09:14:22;;;;;;;11.25;9.73;;;;;;;;;;5016307;28;20058;-77
2023/05/09 09:16:49;;;;;;;13.20;9.98;;;;;;;;;;5016319;28;20060;-77
2023/05/09 09:19:16;;;;;;;13.73;10.40;;;;;;;;;;5000118;28;20054;-78
2023/05/09 09:21:46;;;;;;;11.35;9.23;;;;;;;;;;5000353;28;20085;-78
2023/05/09 09:24:13;;;;;;;12.80;9.88;;;;;;;;;;4999732;28;20057;-76
2023/05/09 09:26:45;;;;;;;10.60;8.48;;;;;;;;;;5015615;28;20413;-77
2023/05/09 09:29:12;;;;;;;12.33;9.57;;;;;;;;;;5015480;28;20063;-78
2023/05/09 09:31:39;;;;;;;8.85;7.95;;;;;;;;;;5015531;28;20136;-78
2023/05/09 09:34:06;;;;;;;7.97;6.72;;;;;;;;;;5015965;28;20057;-78
2023/05/09 09:36:35;;;;;;;7.00;6.30;;;;;;;;;;5015850;28;20061;-78
2023/05/09 09:39:03;;;;;;;8.10;6.70;;;;;;;;;;5017828;28;20061;-77
2023/05/09 09:41:37;;;;;;;12.50;7.10;;;;;;;;;;4999246;28;20057;-77
2023/05/09 09:44:08;;;;;;;8.73;7.88;;;;;;;;;;5015011;28;20136;-77
2023/05/09 09:46:47;;;;;;;9.32;7.57;;;;;;;;;;5014470;28;20060;-77
2023/05/09 09:49:15;;;;;;;11.57;9.45;;;;;;;;;;5014419;28;20076;-76
2023/05/09 09:51:42;;;;;;;16.30;10.15;;;;;;;;;;4998215;28;20497;-77
2023/05/09 09:54:10;;;;;;;10.82;9.73;;;;;;;;;;5014138;28;20072;-78
2023/05/09 09:56:42;;;;;;;10.63;9.10;;;;;;;;;;4998006;28;20060;-78
2023/05/09 09:59:18;;;;;;;10.27;9.18;;;;;;;;;;5015515;28;20069;-78
2023/05/09 10:02:02;;;;;;;11.05;8.88;;;;;;;;;;4998835;28;20053;-78
2023/05/09 10:04:37;;;;;;;9.02;7.43;;;;;;;;;;5000294;28;20061;-78
2023/05/09 10:07:06;;;;;;;8.63;7.25;;;;;;;;;;4999545;28;20088;-77
2023/05/09 10:09:34;;;;;;;7.07;5.63;;;;;;;;;;5015107;28;20045;-77
2023/05/09 10:12:02;;;;;;;8.77;7.72;;;;;;;;;;5015094;28;20107;-78
2023/05/09 10:14:30;;;;;;;10.00;7.55;;;;;;;;;;4999277;28;20057;-78
2023/05/09 10:17:01;;;;;;;7.68;6.88;;;;;;;;;;4999806;28;20447;-78
2023/05/09 10:19:29;;;;;;;6.03;5.47;;;;;;;;;;4999073;28;20679;-78
2023/05/09 10:22:01;;;;;;;6.50;5.90;;;;;;;;;;5015061;28;20076;-75
2023/05/09 10:24:34;;;;;;;;;;;;;;;;;;4998987;28;20058;-75
2023/05/09 10:27:03;;;;;;;7.40;6.65;;;;;;;;;;5014765;28;20415;-74
2023/05/09 10:29:35;;;;;;;8.38;7.47;;;;;;;;;;4998090;28;20100;-75
2023/05/09 10:32:11;;;;;;;7.70;6.30;;;;;;;;;;4998246;28;20087;-75
2023/05/09 10:34:39;;;;;;;6.38;5.70;;;;;;;;;;5013909;28;20077;-75
2023/05/09 10:37:07;;;;;;;7.70;6.20;;;;;;;;;;5014111;28;20092;-75
2023/05/09 10:39:34;;;;;;;7.60;5.68;;;;;;;;;;4997689;28;20054;-75
2023/05/09 10:42:02;;;;;;;7.10;5.95;;;;;;;;;;4993945;28;20061;-75
2023/05/09 10:44:28;;;;;;;6.32;5.53;;;;;;;;;;4994430;28;20071;-75
2023/05/09 10:46:55;;;;;;;6.40;5.18;;;;;;;;;;4994172;28;20514;-75
2023/05/09 10:49:22;;;;;;;5.80;4.88;;;;;;;;;;4977832;28;20050;-75
2023/05/09 10:51:52;;;;;;;6.28;4.65;;;;;;;;;;5012254;28;20057;-75
2023/05/09 10:54:27;;;;;;;5.65;5.07;;;;;;;;;;4998373;28;20057;-76
2023/05/09 10:56:56;;;;;;;6.10;4.78;;;;;;;;;;5014348;28;20060;-76
2023/05/09 10:59:34;;;;;;;5.00;4.60;;;;;;;;;;5012556;28;20092;-76
2023/05/09 11:02:04;;;;;;;7.43;6.25;;;;;;;;;;5016970;28;20053;-76
2023/05/09 11:04:31;;;;;;;5.45;4.82;;;;;;;;;;5001532;28;20126;-76
2023/05/09 11:06:59;;;;;;;7.40;6.38;;;;;;;;;;5016969;28;20141;-76
2023/05/09 11:09:27;;;;;;;8.43;4.90;;;;;;;;;;4997635;28;20057;-76
2023/05/09 11:12:07;;;;;;;5.13;4.63;;;;;;;;;;5012527;28;20449;-76
2023/05/09 11:14:34;;;;;;;5.55;4.30;;;;;;;;;;5013537;28;20135;-76
2023/05/09 11:17:03;;;;;;;5.80;4.78;;;;;;;;;;5013549;28;20068;-76
2023/05/09 11:19:37;;;;;;;5.80;5.18;;;;;;;;;;4996868;28;20061;-76
2023/05/09 11:22:18;;;;;;;4.80;4.40;;;;;;;;;;4996922;28;20506;-76
2023/05/09 11:24:49;;;;;;;6.80;4.78;;;;;;;;;;4981070;28;20057;-76
2023/05/09 11:27:21;;;;;;;6.35;3.97;;;;;;;;;;4981200;28;20149;-75
2023/05/09 11:29:53;;;;;;;4.88;4.38;;;;;;;;;;5016642;28;20057;-78
2023/05/09 11:32:21;;;;;;;4.63;3.88;;;;;;;;;;5001454;28;20140;-79
2023/05/09 11:34:48;;;;;;;4.70;4.30;;;;;;;;;;5020273;28;20060;-80
2023/05/09 11:37:16;;;;;;;6.68;4.07;;;;;;;;;;5002656;28;20059;-80
2023/05/09 11:39:59;;;;;;;5.85;5.32;;;;;;;;;;5016553;28;20394;-75
2023/05/09 11:42:30;;;;;;;4.72;4.32;;;;;;;;;;5010106;28;20497;-75
2023/05/09 11:44:57;;;;;;;4.85;4.25;;;;;;;;;;5006177;28;20069;-74
2023/05/09 11:47:24;;;;;;;5.53;4.43;;;;;;;;;;5009971;28;20136;-75
2023/05/09 11:49:52;;;;;;;5.47;4.15;;;;;;;;;;4989867;28;20543;-75
2023/05/09 11:52:19;;;;;;;5.18;4.70;;;;;;;;;;5002178;28;20052;-74
2023/05/09 11:54:47;;;;;;;5.40;4.90;;;;;;;;;;5002397;28;20060;-75
2023/05/09 11:57:17;;;;;;;4.88;4.40;;;;;;;;;;5003442;28;20064;-77
2023/05/09 11:59:45;;;;;;;5.05;4.55;;;;;;;;;;4970679;28;20502;-76
2023/05/09 12:02:12;;;;;;;8.70;5.18;;;;;;;;;;5005644;28;20092;-76
2023/05/09 12:04:39;;;;;;;6.60;5.78;;;;;;;;;;4999939;28;20077;-76
2023/05/09 12:07:06;;;;;;;4.55;4.05;;;;;;;;;;5012057;28;20765;-75
2023/05/09 12:09:33;;;;;;;5.10;4.60;;;;;;;;;;5020668;28;20104;-76
2023/05/09 12:12:00;;;;;;;4.55;4.15;;;;;;;;;;4987914;28;20054;-76
2023/05/09 12:14:36;;;;;;;5.35;4.45;;;;;;;;;;4986232;28;20057;-76
2023/05/09 12:17:06;;;;;;;5.65;5.15;;;;;;;;;;5004062;28;20430;-74
2023/05/09 12:19:34;;;;;;;8.60;4.70;;;;;;;;;;5004379;28;20171;-75
2023/05/09 12:22:02;;;;;;;5.15;4.75;;;;;;;;;;5004537;28;20064;-75
2023/05/09 12:24:30;;;;;;;4.93;4.47;;;;;;;;;;5003358;28;20136;-76
2023/05/09 12:27:00;;;;;;;6.18;5.57;;;;;;;;;;5001746;28;20055;-76
2023/05/09 12:29:27;;;;;;;4.47;4.07;;;;;;;;;;4993215;28;20128;-76
2023/05/09 12:31:53;;;;;;;4.50;4.20;;;;;;;;;;5004662;28;20049;-76
2023/05/09 12:34:20;;;;;;;6.13;4.78;;;;;;;;;;5001865;28;20057;-79
2023/05/09 12:36:49;;;;;;;4.35;3.95;;;;;;;;;;5001455;28;20136;-78
2023/05/09 12:39:18;;;;;;;4.93;4.43;;;;;;;;;;4989298;28;20060;-79
2023/05/09 12:41:45;;;;;;;5.35;4.85;;;;;;;;;;4987552;28;20046;-79
2023/05/09 12:44:28;;;;;;;6.40;4.88;;;;;;;;;;4990756;28;20064;-80
2023/05/09 12:46:57;;;;;;;7.57;4.47;;;;;;;;;;5022411;28;20058;-82
2023/05/09 12:49:24;;;;;;;4.95;4.50;;;;;;;;;;5001852;28;20049;-80
2023/05/09 12:51:52;;;;;;;5.38;4.88;;;;;;;;;;5009839;28;20506;-81
2023/05/09 12:54:21;;;;;;;5.40;4.90;;;;;;;;;;5008350;28;20518;-80
2023/05/09 12:56:50;;;;;;;5.57;4.05;;;;;;;;;;4999590;28;20128;-81
2023/05/09 12:59:26;;;;;;;4.72;3.65;;;;;;;;;;4986164;28;20045;-81
2023/05/09 13:01:57;;;;;;;4.00;3.53;;;;;;;;;;4998322;28;20077;-80
2023/05/09 13:04:26;;;;;;;3.88;2.83;;;;;;;;;;4997177;28;20105;-80
2023/05/09 13:06:54;;;;;;;3.83;3.53;;;;;;;;;;5031353;28;20128;-80
2023/05/09 13:09:22;;;;;;;3.75;3.42;;;;;;;;;;4994296;28;20057;-81
2023/05/09 13:11:50;;;;;;;4.43;3.63;;;;;;;;;;4997708;28;20049;-81
2023/05/09 13:14:18;;;;;;;5.53;3.45;;;;;;;;;;5012398;28;20430;-81
2023/05/09 13:16:45;;;;;;;5.65;3.42;;;;;;;;;;5012129;28;20061;-81
2023/05/09 13:19:12;;;;;;;4.10;3.70;;;;;;;;;;5007640;28;20124;-80
2023/05/09 13:21:39;;;;;;;5.75;3.00;;;;;;;;;;5013090;28;20141;-81
2023/05/09 13:24:06;;;;;;;3.55;3.25;;;;;;;;;;5014102;28;20049;-80
2023/05/09 13:26:32;;;;;;;3.35;3.05;;;;;;;;;;4990297;28;20077;-80
2023/05/09 13:28:59;;;;;;;9.52;3.03;;;;;;;;;;5010949;28;20117;-81
2023/05/09 13:31:26;;;;;;;3.05;2.78;;;;;;;;;;5011385;28;20114;-81
2023/05/09 13:33:53;;;;;;;7.65;3.88;;;;;;;;;;5011607;28;20064;-80
2023/05/09 13:36:20;;;;;;;3.35;3.05;;;;;;;;;;5012909;28;20460;-80
2023/05/09 13:38:47;;;;;;;2.75;2.55;;;;;;;;;;5013587;28;20073;-81
2023/05/09 13:41:18;;;;;;;4.40;2.90;;;;;;;;;;4992181;28;20069;-81
2023/05/09 13:43:46;;;;;;;3.58;2.80;;;;;;;;;;5013516;28;20083;-81
2023/05/09 13:46:12;;;;;;;3.28;2.97;;;;;;;;;;5026895;28;20228;-80
2023/05/09 13:48:40;;;;;;;3.30;2.63;;;;;;;;;;5028997;28;20099;-81
2023/05/09 13:51:07;;;;;;;3.97;2.95;;;;;;;;;;4995715;28;20117;-81
2023/05/09 13:53:34;;;;;;;3.90;3.00;;;;;;;;;;5026392;28;20046;-82
2023/05/09 13:56:06;;;;;;;3.03;2.83;;;;;;;;;;5002719;28;20052;-81
2023/05/09 13:58:32;;;;;;;3.65;2.50;;;;;;;;;;5002427;28;20050;-78
2023/05/09 14:00:59;;;;;;;3.05;2.85;;;;;;;;;;5021365;28;20433;-80
2023/05/09 14:03:26;;;;;;;2.67;2.47;;;;;;;;;;5006648;28;20120;-82
2023/05/09 14:05:53;;;;;;;2.33;2.15;;;;;;;;;;5005487;28;20073;-81
2023/05/09 14:08:20;;;;;;;10.73;4.75;;;;;;;;;;4992315;28;20556;-78
2023/05/09 14:10:47;;;;;;;6.30;3.45;;;;;;;;;;5003332;28;20049;-78
2023/05/09 14:13:14;;;;;;;5.60;3.00;;;;;;;;;;4983537;28;20602;-78
2023/05/09 14:15:41;;;;;;;4.65;2.85;;;;;;;;;;4999115;28;20142;-77
2023/05/09 14:18:08;;;;;;;13.80;5.90;;;;;;;;;;5004207;28;20052;-77
2023/05/09 14:20:36;;;;;;;14.85;6.55;;;;;;;;;;5002617;28;20080;-78
2023/05/09 14:23:03;;;;;;;4.53;2.72;;;;;;;;;;5016026;28;20057;-79
2023/05/09 14:25:30;;;;;;;2.90;1.80;;;;;;;;;;5000122;28;20046;-77
2023/05/09 14:27:58;;;;;;;3.38;2.30;;;;;;;;;;5001049;28;20085;-77
2023/05/09 14:30:25;;;;;;;3.25;2.33;;;;;;;;;;5000279;28;20050;-76
2023/05/09 14:32:52;;;;;;;2.08;1.70;;;;;;;;;;5017134;28;20138;-78